Terminal Aerodrome Forecast
Issued by NWS

Home | Current Version | Previous Version | Text Only | Print | Product List | Glossary On
Versions: 1 2 3 4 5 6 7 8 9 10 11 12 13
000
FTPQ31 PGUM 022336
TAFGUM
TAF

TAF
PTKK 022336Z 0300/0324 06008KT P6SM VCSH SCT014 BKN120
      TEMPO 0300/0304 3SM +SHRA SCT014 BKN025 OVC120=

USA.gov is the U.S. government's official web portal to all federal, state and local government web resources and services.